Time;durP1;ratioP1;P1;durP2;ratioP2;P2;SDS_P1;SDS_P2;PMS_P1;PMS_P2;Temp;Humidity;BMP_temperature;BMP_pressure;BME280_temperature;BME280_humidity;BME280_pressure;Samples;Min_cycle;Max_cycle;Signal;HPM_P1;HPM_P2
2021/08/14 00:00:59;;;;;;;10.38;5.32;;;;;;;;;;4996676;28;20023;-69
2021/08/14 00:03:25;;;;;;;9.85;5.93;;;;;;;;;;4996434;28;20027;-69
2021/08/14 00:05:51;;;;;;;9.90;5.50;;;;;;;;;;4996136;28;20530;-69
2021/08/14 00:08:17;;;;;;;7.45;5.53;;;;;;;;;;4996006;28;20018;-69
2021/08/14 00:10:43;;;;;;;8.55;5.65;;;;;;;;;;4996080;28;20022;-69
2021/08/14 00:13:09;;;;;;;8.95;5.38;;;;;;;;;;4996504;28;20049;-69
2021/08/14 00:15:35;;;;;;;11.48;6.63;;;;;;;;;;4996210;28;20030;-69
2021/08/14 00:18:01;;;;;;;9.52;6.05;;;;;;;;;;4996122;28;20101;-69
2021/08/14 00:20:27;;;;;;;8.05;5.88;;;;;;;;;;4995883;28;20057;-69
2021/08/14 00:22:54;;;;;;;12.38;5.78;;;;;;;;;;4995938;28;20049;-69
2021/08/14 00:25:20;;;;;;;8.32;5.63;;;;;;;;;;4996053;28;20117;-70
2021/08/14 00:27:46;;;;;;;10.93;6.50;;;;;;;;;;4995965;28;20023;-69
2021/08/14 00:30:12;;;;;;;11.05;5.68;;;;;;;;;;4995789;28;20022;-69
2021/08/14 00:32:38;;;;;;;10.15;6.18;;;;;;;;;;4996072;28;20396;-69
2021/08/14 00:35:04;;;;;;;11.77;6.35;;;;;;;;;;4995728;28;20037;-70
2021/08/14 00:37:30;;;;;;;9.13;5.90;;;;;;;;;;4995801;28;20018;-69
2021/08/14 00:39:56;;;;;;;7.82;5.63;;;;;;;;;;4995690;28;20081;-70
2021/08/14 00:42:22;;;;;;;10.35;6.10;;;;;;;;;;4995612;28;20479;-70
2021/08/14 00:44:48;;;;;;;11.10;6.03;;;;;;;;;;4995560;28;20033;-69
2021/08/14 00:47:14;;;;;;;9.10;6.10;;;;;;;;;;4995838;28;20030;-69
2021/08/14 00:49:39;;;;;;;11.13;6.28;;;;;;;;;;4995450;28;20021;-69
2021/08/14 00:52:06;;;;;;;11.70;6.43;;;;;;;;;;4995431;28;20027;-69
2021/08/14 00:54:32;;;;;;;10.25;5.90;;;;;;;;;;4995386;28;20038;-69
2021/08/14 00:56:58;;;;;;;12.02;6.00;;;;;;;;;;4995384;28;20068;-69
2021/08/14 00:59:30;;;;;;;10.02;6.35;;;;;;;;;;4995525;28;20427;-69
2021/08/14 01:01:55;;;;;;;10.18;5.95;;;;;;;;;;4994013;28;20015;-69
2021/08/14 01:04:22;;;;;;;8.40;5.57;;;;;;;;;;4994993;28;20092;-69
2021/08/14 01:06:49;;;;;;;10.82;6.00;;;;;;;;;;4995077;28;20121;-70
2021/08/14 01:09:15;;;;;;;9.85;6.13;;;;;;;;;;4995298;28;20555;-69
2021/08/14 01:11:41;;;;;;;11.90;6.38;;;;;;;;;;4995132;28;20038;-70
2021/08/14 01:14:07;;;;;;;12.43;6.68;;;;;;;;;;4994967;28;20066;-69
2021/08/14 01:16:34;;;;;;;10.68;6.88;;;;;;;;;;4994988;28;20019;-69
2021/08/14 01:19:00;;;;;;;11.55;6.70;;;;;;;;;;4994982;28;20022;-69
2021/08/14 01:21:25;;;;;;;8.60;6.57;;;;;;;;;;4994974;28;20080;-69
2021/08/14 01:23:55;;;;;;;9.32;5.60;;;;;;;;;;4994825;28;20418;-69
2021/08/14 01:26:21;;;;;;;9.82;6.68;;;;;;;;;;4994823;28;20116;-70
2021/08/14 01:28:48;;;;;;;18.45;8.50;;;;;;;;;;4995025;28;20105;-70
2021/08/14 01:31:15;;;;;;;11.73;6.70;;;;;;;;;;4995036;28;20018;-70
2021/08/14 01:33:41;;;;;;;11.43;6.82;;;;;;;;;;4994607;28;20026;-69
2021/08/14 01:36:08;;;;;;;17.75;6.88;;;;;;;;;;4994495;28;20022;-69
2021/08/14 01:38:44;;;;;;;11.18;6.22;;;;;;;;;;4994751;28;20391;-70
2021/08/14 01:41:10;;;;;;;11.55;6.25;;;;;;;;;;4977388;28;20467;-70
2021/08/14 01:43:46;;;;;;;9.07;6.78;;;;;;;;;;4994601;28;20582;-70
2021/08/14 01:46:12;;;;;;;10.00;6.57;;;;;;;;;;4994310;28;20022;-70
2021/08/14 01:48:37;;;;;;;12.05;6.50;;;;;;;;;;4994362;28;20014;-70
2021/08/14 01:51:04;;;;;;;8.80;6.43;;;;;;;;;;4994409;28;20073;-70
2021/08/14 01:53:30;;;;;;;13.48;7.32;;;;;;;;;;4994268;28;20018;-69
2021/08/14 01:55:56;;;;;;;12.98;6.68;;;;;;;;;;4994285;28;20030;-70
2021/08/14 01:58:22;;;;;;;10.20;6.78;;;;;;;;;;4994150;28;20023;-70
2021/08/14 02:00:48;;;;;;;12.07;6.13;;;;;;;;;;4994194;28;20027;-70
2021/08/14 02:03:14;;;;;;;10.68;6.75;;;;;;;;;;4994046;28;20491;-70
2021/08/14 02:05:40;;;;;;;12.75;6.40;;;;;;;;;;4993856;28;20054;-70
2021/08/14 02:08:06;;;;;;;11.00;6.38;;;;;;;;;;4993993;28;20021;-70
2021/08/14 02:10:32;;;;;;;11.70;6.75;;;;;;;;;;4994099;28;20025;-70
2021/08/14 02:12:58;;;;;;;14.07;7.40;;;;;;;;;;4993521;28;20014;-70
2021/08/14 02:15:24;;;;;;;12.68;7.18;;;;;;;;;;4994126;28;20030;-70
2021/08/14 02:17:50;;;;;;;12.30;7.65;;;;;;;;;;4993954;28;20109;-70
2021/08/14 02:20:17;;;;;;;10.55;8.13;;;;;;;;;;4993692;28;20018;-70
2021/08/14 02:22:42;;;;;;;12.88;7.35;;;;;;;;;;4993760;28;20082;-70
2021/08/14 02:25:09;;;;;;;17.17;7.88;;;;;;;;;;4993881;28;20097;-70
2021/08/14 02:27:35;;;;;;;16.33;7.32;;;;;;;;;;4994059;28;20027;-70
2021/08/14 02:30:04;;;;;;;10.80;7.45;;;;;;;;;;4993753;28;20018;-70
2021/08/14 02:32:30;;;;;;;13.68;7.40;;;;;;;;;;4993541;28;20072;-70
2021/08/14 02:34:55;;;;;;;14.27;7.40;;;;;;;;;;4993483;28;20398;-71
2021/08/14 02:37:21;;;;;;;12.93;7.38;;;;;;;;;;4993779;28;20014;-70
2021/08/14 02:39:47;;;;;;;14.15;8.02;;;;;;;;;;4993571;28;20073;-71
2021/08/14 02:42:13;;;;;;;11.05;7.15;;;;;;;;;;4993529;28;20023;-70
2021/08/14 02:44:39;;;;;;;16.65;8.00;;;;;;;;;;4993498;28;20015;-70
2021/08/14 02:47:05;;;;;;;10.15;7.45;;;;;;;;;;4993438;28;20018;-71
2021/08/14 02:49:31;;;;;;;13.25;7.80;;;;;;;;;;4993430;28;20015;-70
2021/08/14 02:51:57;;;;;;;16.52;8.77;;;;;;;;;;4993425;28;20018;-70
2021/08/14 02:54:23;;;;;;;11.68;8.00;;;;;;;;;;4993447;28;20125;-70
2021/08/14 02:56:49;;;;;;;17.10;7.97;;;;;;;;;;4993196;28;20010;-70
2021/08/14 02:59:15;;;;;;;12.00;7.55;;;;;;;;;;4993469;28;20484;-70
2021/08/14 03:01:41;;;;;;;12.55;8.00;;;;;;;;;;4993530;28;20084;-70
2021/08/14 03:04:07;;;;;;;18.63;7.75;;;;;;;;;;4992897;28;20454;-70
2021/08/14 03:06:33;;;;;;;11.75;7.10;;;;;;;;;;4993365;28;20023;-70
2021/08/14 03:08:59;;;;;;;13.48;8.70;;;;;;;;;;4993257;28;20166;-70
2021/08/14 03:11:25;;;;;;;15.30;7.40;;;;;;;;;;4993447;28;20100;-71
2021/08/14 03:13:51;;;;;;;15.55;8.23;;;;;;;;;;4993220;28;20478;-71
2021/08/14 03:16:17;;;;;;;12.45;7.50;;;;;;;;;;4993120;28;20065;-70
2021/08/14 03:18:43;;;;;;;18.42;7.28;;;;;;;;;;4993069;28;20104;-70
2021/08/14 03:21:10;;;;;;;12.93;7.75;;;;;;;;;;4975797;28;20390;-70
2021/08/14 03:23:36;;;;;;;12.25;6.68;;;;;;;;;;4993132;28;20026;-70
2021/08/14 03:26:02;;;;;;;13.60;7.82;;;;;;;;;;4994814;28;20102;-71
2021/08/14 03:28:28;;;;;;;10.38;7.07;;;;;;;;;;4996982;28;20025;-71
2021/08/14 03:30:55;;;;;;;13.70;8.18;;;;;;;;;;4996894;28;20022;-70
2021/08/14 03:33:21;;;;;;;14.90;8.07;;;;;;;;;;4979431;28;20026;-70
2021/08/14 03:35:47;;;;;;;14.40;7.18;;;;;;;;;;4996853;28;20105;-70
2021/08/14 03:38:13;;;;;;;15.02;7.75;;;;;;;;;;4996888;28;20019;-71
2021/08/14 03:40:38;;;;;;;11.02;7.40;;;;;;;;;;4996855;28;20386;-70
2021/08/14 03:43:04;;;;;;;14.63;8.45;;;;;;;;;;4997092;28;20026;-71
2021/08/14 03:45:30;;;;;;;14.40;8.48;;;;;;;;;;4996805;28;20019;-71
2021/08/14 03:47:56;;;;;;;15.52;8.18;;;;;;;;;;4996516;28;20018;-72
2021/08/14 03:50:22;;;;;;;12.52;7.68;;;;;;;;;;4996926;28;20495;-71
2021/08/14 03:52:48;;;;;;;13.77;7.88;;;;;;;;;;4996640;28;20101;-70
2021/08/14 03:55:13;;;;;;;18.00;7.78;;;;;;;;;;4996440;28;20117;-70
2021/08/14 03:57:39;;;;;;;12.23;7.50;;;;;;;;;;4996469;28;20109;-70
2021/08/14 04:00:06;;;;;;;13.00;8.30;;;;;;;;;;4996348;28;20023;-70
2021/08/14 04:02:31;;;;;;;15.75;8.40;;;;;;;;;;4996235;28;20467;-70
2021/08/14 04:04:59;;;;;;;16.63;9.13;;;;;;;;;;4996203;28;20136;-71
2021/08/14 04:07:26;;;;;;;13.30;8.50;;;;;;;;;;4996508;28;20022;-70
2021/08/14 04:09:52;;;;;;;16.92;8.38;;;;;;;;;;4996400;28;20368;-71
2021/08/14 04:12:17;;;;;;;17.55;8.52;;;;;;;;;;4996057;28;20027;-71
2021/08/14 04:14:43;;;;;;;15.20;8.05;;;;;;;;;;4996091;28;20027;-71
2021/08/14 04:17:09;;;;;;;18.15;8.13;;;;;;;;;;4996150;28;20023;-71
2021/08/14 04:19:35;;;;;;;15.15;8.88;;;;;;;;;;4996315;28;20021;-71
2021/08/14 04:22:01;;;;;;;13.13;9.02;;;;;;;;;;4996167;28;20069;-71
2021/08/14 04:24:27;;;;;;;13.63;8.18;;;;;;;;;;4995934;28;20029;-70
2021/08/14 04:26:54;;;;;;;10.90;8.07;;;;;;;;;;4995880;28;20030;-71
2021/08/14 04:29:20;;;;;;;11.05;7.43;;;;;;;;;;4996214;28;20073;-71
2021/08/14 04:31:46;;;;;;;12.07;7.38;;;;;;;;;;4995768;28;20018;-70
2021/08/14 04:34:12;;;;;;;16.80;10.40;;;;;;;;;;4995715;28;20117;-71
2021/08/14 04:36:38;;;;;;;15.68;7.95;;;;;;;;;;4995505;28;20014;-71
2021/08/14 04:39:04;;;;;;;12.60;7.47;;;;;;;;;;4995804;28;20026;-71
2021/08/14 04:41:30;;;;;;;15.80;8.98;;;;;;;;;;4995868;28;20022;-71
2021/08/14 04:43:56;;;;;;;15.20;8.75;;;;;;;;;;4995686;28;20065;-71
2021/08/14 04:46:21;;;;;;;13.93;9.10;;;;;;;;;;4995512;28;20448;-71
2021/08/14 04:48:48;;;;;;;18.75;9.00;;;;;;;;;;4995493;28;20045;-70
2021/08/14 04:51:14;;;;;;;11.10;7.72;;;;;;;;;;4995825;28;20026;-71
2021/08/14 04:53:40;;;;;;;13.90;7.78;;;;;;;;;;4995488;28;20026;-71
2021/08/14 04:56:06;;;;;;;15.40;7.20;;;;;;;;;;4995366;28;20025;-71
2021/08/14 04:58:31;;;;;;;15.98;8.27;;;;;;;;;;4978079;28;20018;-71
2021/08/14 05:00:57;;;;;;;12.40;7.32;;;;;;;;;;4995151;28;20077;-71
2021/08/14 05:03:24;;;;;;;10.70;7.00;;;;;;;;;;4995328;28;20026;-71
2021/08/14 05:05:49;;;;;;;13.73;7.07;;;;;;;;;;4995125;28;20125;-71
2021/08/14 05:08:15;;;;;;;12.65;7.95;;;;;;;;;;4977564;28;20121;-71
2021/08/14 05:10:41;;;;;;;11.25;7.20;;;;;;;;;;4995182;28;20026;-71
2021/08/14 05:13:07;;;;;;;12.13;6.25;;;;;;;;;;4995268;28;20041;-72
2021/08/14 05:15:33;;;;;;;13.75;6.63;;;;;;;;;;4995109;28;20510;-72
2021/08/14 05:17:59;;;;;;;10.85;6.78;;;;;;;;;;4995026;28;20405;-72
2021/08/14 05:20:25;;;;;;;12.48;6.70;;;;;;;;;;4994862;28;20029;-72
2021/08/14 05:22:51;;;;;;;9.93;5.95;;;;;;;;;;4994808;28;20420;-72
2021/08/14 05:25:17;;;;;;;13.10;6.53;;;;;;;;;;4995106;28;20053;-72
2021/08/14 05:27:43;;;;;;;12.10;6.20;;;;;;;;;;4994799;28;20057;-72
2021/08/14 05:30:08;;;;;;;10.68;6.38;;;;;;;;;;4977275;28;20057;-71
2021/08/14 05:32:34;;;;;;;13.05;6.43;;;;;;;;;;4994667;28;20087;-71
2021/08/14 05:35:00;;;;;;;10.32;5.90;;;;;;;;;;4994539;28;20026;-72
2021/08/14 05:37:26;;;;;;;10.98;5.63;;;;;;;;;;4994699;28;20061;-72
2021/08/14 05:39:51;;;;;;;15.75;6.53;;;;;;;;;;4994651;28;20022;-72
2021/08/14 05:42:18;;;;;;;8.40;5.82;;;;;;;;;;4994442;28;20026;-72
2021/08/14 05:44:44;;;;;;;9.40;5.72;;;;;;;;;;4994419;28;20026;-71
2021/08/14 05:47:10;;;;;;;11.63;5.80;;;;;;;;;;4994406;28;20104;-72
2021/08/14 05:49:35;;;;;;;11.27;5.57;;;;;;;;;;4993882;28;20074;-71
2021/08/14 05:52:04;;;;;;;10.63;5.35;;;;;;;;;;4994441;28;20025;-72
2021/08/14 05:54:32;;;;;;;11.68;5.60;;;;;;;;;;4994414;28;20042;-71
2021/08/14 05:57:00;;;;;;;16.05;5.38;;;;;;;;;;4994284;28;20014;-71
2021/08/14 05:59:27;;;;;;;10.75;5.70;;;;;;;;;;4994293;28;20070;-71
2021/08/14 06:01:52;;;;;;;10.65;5.50;;;;;;;;;;4993949;28;20550;-70
2021/08/14 06:04:17;;;;;;;11.40;5.25;;;;;;;;;;4993927;28;20046;-70
2021/08/14 06:06:43;;;;;;;11.07;5.47;;;;;;;;;;4994026;28;20439;-70
2021/08/14 06:09:10;;;;;;;10.45;5.28;;;;;;;;;;4994563;28;20045;-70
2021/08/14 06:11:36;;;;;;;15.68;5.50;;;;;;;;;;4976661;28;20449;-70
2021/08/14 06:14:02;;;;;;;11.35;5.38;;;;;;;;;;4993962;28;20018;-70
2021/08/14 06:16:28;;;;;;;9.70;5.18;;;;;;;;;;4994060;28;20030;-70
2021/08/14 06:18:55;;;;;;;9.77;4.82;;;;;;;;;;4976384;28;20487;-71
2021/08/14 06:21:21;;;;;;;9.25;5.10;;;;;;;;;;4993948;28;20018;-71
2021/08/14 06:23:46;;;;;;;11.30;5.13;;;;;;;;;;4993725;28;20014;-71
2021/08/14 06:26:12;;;;;;;9.88;5.40;;;;;;;;;;4993828;28;20453;-71
2021/08/14 06:28:38;;;;;;;10.38;5.25;;;;;;;;;;4993856;28;20022;-70
2021/08/14 06:31:04;;;;;;;6.75;4.63;;;;;;;;;;4993587;28;20072;-71
2021/08/14 06:33:31;;;;;;;10.05;4.80;;;;;;;;;;4993675;28;20117;-71
2021/08/14 06:35:56;;;;;;;12.52;4.88;;;;;;;;;;4993639;28;20027;-71
2021/08/14 06:38:22;;;;;;;8.15;5.20;;;;;;;;;;4993523;28;20033;-70
2021/08/14 06:40:48;;;;;;;6.63;4.63;;;;;;;;;;4993567;28;20049;-70
2021/08/14 06:43:14;;;;;;;6.90;4.97;;;;;;;;;;4993526;28;20025;-70
2021/08/14 06:45:39;;;;;;;10.13;4.95;;;;;;;;;;4993435;28;20022;-70
2021/08/14 06:48:06;;;;;;;7.45;4.70;;;;;;;;;;4993444;28;20018;-70
2021/08/14 06:50:32;;;;;;;7.25;4.50;;;;;;;;;;4993675;28;20021;-70
2021/08/14 06:52:58;;;;;;;11.63;5.18;;;;;;;;;;4993397;28;20014;-70
2021/08/14 06:55:24;;;;;;;7.85;4.68;;;;;;;;;;4993372;28;20506;-70
2021/08/14 06:57:50;;;;;;;7.07;4.45;;;;;;;;;;4993457;28;20018;-70
2021/08/14 07:00:16;;;;;;;8.75;4.72;;;;;;;;;;4975718;28;20129;-70
2021/08/14 07:02:42;;;;;;;12.05;4.68;;;;;;;;;;4993258;28;20507;-70
2021/08/14 07:05:08;;;;;;;11.52;4.70;;;;;;;;;;4993258;28;20085;-70
2021/08/14 07:07:35;;;;;;;7.30;4.22;;;;;;;;;;4993298;28;20033;-70
2021/08/14 07:10:04;;;;;;;9.27;4.53;;;;;;;;;;4993197;28;20015;-70
2021/08/14 07:12:30;;;;;;;10.57;5.15;;;;;;;;;;4993239;28;20022;-70
2021/08/14 07:14:59;;;;;;;16.67;5.30;;;;;;;;;;4992989;28;20025;-70
2021/08/14 07:17:25;;;;;;;9.07;4.50;;;;;;;;;;4993376;28;20030;-70
2021/08/14 07:19:51;;;;;;;11.70;4.45;;;;;;;;;;4993055;28;20018;-70
2021/08/14 07:22:17;;;;;;;12.35;4.57;;;;;;;;;;4993081;28;20018;-70
2021/08/14 07:24:43;;;;;;;14.55;4.60;;;;;;;;;;4993158;28;20046;-70
2021/08/14 07:27:09;;;;;;;8.10;4.82;;;;;;;;;;4993037;28;20022;-70
2021/08/14 07:29:35;;;;;;;9.80;4.22;;;;;;;;;;4975657;28;20495;-70
2021/08/14 07:32:00;;;;;;;8.32;4.10;;;;;;;;;;4993033;28;20113;-70
2021/08/14 07:34:26;;;;;;;8.07;4.20;;;;;;;;;;4992666;28;20034;-70
2021/08/14 07:36:52;;;;;;;11.40;4.30;;;;;;;;;;4975600;28;20089;-70
2021/08/14 07:39:18;;;;;;;6.57;4.18;;;;;;;;;;4975528;28;20077;-70
2021/08/14 07:41:43;;;;;;;13.85;4.07;;;;;;;;;;4993006;28;20022;-69
2021/08/14 07:44:09;;;;;;;8.13;4.43;;;;;;;;;;4992246;28;20367;-72
2021/08/14 07:46:34;;;;;;;8.70;4.30;;;;;;;;;;4992590;28;20038;-70
2021/08/14 07:49:00;;;;;;;6.85;3.97;;;;;;;;;;4992762;28;20021;-70
2021/08/14 07:51:25;;;;;;;5.22;4.00;;;;;;;;;;4992975;28;20109;-70
2021/08/14 07:53:51;;;;;;;11.07;4.63;;;;;;;;;;4992465;28;20022;-70
2021/08/14 07:56:17;;;;;;;14.02;4.53;;;;;;;;;;4975088;28;20080;-71
2021/08/14 07:58:43;;;;;;;12.95;4.68;;;;;;;;;;4992654;28;20018;-70
2021/08/14 08:01:09;;;;;;;10.63;3.75;;;;;;;;;;4994516;28;20029;-71
2021/08/14 08:03:34;;;;;;;11.52;4.25;;;;;;;;;;5009596;28;20036;-70
2021/08/14 08:05:59;;;;;;;4.97;3.25;;;;;;;;;;5010549;28;20510;-72
2021/08/14 08:08:25;;;;;;;8.68;4.32;;;;;;;;;;5006262;28;20026;-71
2021/08/14 08:10:50;;;;;;;10.60;3.90;;;;;;;;;;5004088;28;20022;-71
2021/08/14 08:13:16;;;;;;;6.13;3.80;;;;;;;;;;5013001;28;20025;-72
2021/08/14 08:15:43;;;;;;;10.20;4.28;;;;;;;;;;4998041;28;20025;-72
2021/08/14 08:18:10;;;;;;;9.02;3.72;;;;;;;;;;5015678;28;20557;-72
2021/08/14 08:20:35;;;;;;;5.00;3.65;;;;;;;;;;5015928;28;20033;-72
2021/08/14 08:23:01;;;;;;;8.98;4.20;;;;;;;;;;5015679;28;20022;-72
2021/08/14 08:25:28;;;;;;;7.22;3.88;;;;;;;;;;5015829;28;20425;-72
2021/08/14 08:27:53;;;;;;;7.85;4.82;;;;;;;;;;5015585;28;20021;-71
2021/08/14 08:30:20;;;;;;;7.90;3.90;;;;;;;;;;5015864;28;20084;-72
2021/08/14 08:32:46;;;;;;;7.47;4.38;;;;;;;;;;5015694;28;20018;-72
2021/08/14 08:35:12;;;;;;;6.53;4.40;;;;;;;;;;5015573;28;20029;-72
2021/08/14 08:37:39;;;;;;;9.48;4.47;;;;;;;;;;5015545;28;20022;-71
2021/08/14 08:40:05;;;;;;;8.35;4.10;;;;;;;;;;5015224;28;20026;-72
2021/08/14 08:42:31;;;;;;;15.38;4.10;;;;;;;;;;4994175;28;20019;-71
2021/08/14 08:44:59;;;;;;;7.63;3.70;;;;;;;;;;5012918;28;20033;-72
2021/08/14 08:47:25;;;;;;;8.80;3.85;;;;;;;;;;5015378;28;20032;-71
2021/08/14 08:49:53;;;;;;;7.68;3.47;;;;;;;;;;5015293;28;20371;-72
2021/08/14 08:52:19;;;;;;;4.20;2.97;;;;;;;;;;4997758;28;20425;-72
2021/08/14 08:54:46;;;;;;;5.60;3.17;;;;;;;;;;5015068;28;20040;-72
2021/08/14 08:57:12;;;;;;;8.93;3.63;;;;;;;;;;4997360;28;20518;-71
2021/08/14 08:59:38;;;;;;;7.20;3.47;;;;;;;;;;4997702;28;20483;-72
2021/08/14 09:02:03;;;;;;;9.07;3.00;;;;;;;;;;5014968;28;20026;-71
2021/08/14 09:04:31;;;;;;;7.07;3.50;;;;;;;;;;5014884;28;20042;-72
2021/08/14 09:06:58;;;;;;;8.48;4.10;;;;;;;;;;4997281;28;20022;-72
2021/08/14 09:09:26;;;;;;;7.15;3.38;;;;;;;;;;5014906;28;20368;-72
2021/08/14 09:11:55;;;;;;;6.88;3.45;;;;;;;;;;5014631;28;20061;-71
2021/08/14 09:14:21;;;;;;;7.45;3.38;;;;;;;;;;5014542;28;20038;-72
2021/08/14 09:16:54;;;;;;;9.50;3.50;;;;;;;;;;5014661;28;20383;-72
2021/08/14 09:19:22;;;;;;;10.45;3.80;;;;;;;;;;5014676;28;20029;-72
2021/08/14 09:21:48;;;;;;;;;;;;;;;;;;5014917;28;20076;-71
2021/08/14 09:24:33;;;;;;;11.43;3.55;;;;;;;;;;5013411;28;19949;-72
2021/08/14 09:27:01;;;;;;;8.48;4.05;;;;;;;;;;5014452;28;20104;-72
2021/08/14 09:29:32;;;;;;;11.15;4.30;;;;;;;;;;5014448;28;20021;-72
2021/08/14 09:31:59;;;;;;;6.32;4.10;;;;;;;;;;4996743;28;20030;-73
2021/08/14 09:34:27;;;;;;;7.22;3.60;;;;;;;;;;5014058;28;20022;-72
2021/08/14 09:37:07;;;;;;;5.05;3.92;;;;;;;;;;5014148;28;20108;-72
2021/08/14 09:39:34;;;;;;;12.63;4.30;;;;;;;;;;5014369;28;20053;-71
2021/08/14 09:42:04;;;;;;;10.07;4.53;;;;;;;;;;5014174;28;20109;-71
2021/08/14 09:44:31;;;;;;;11.60;4.47;;;;;;;;;;5014259;28;20014;-71
2021/08/14 09:46:56;;;;;;;9.73;3.97;;;;;;;;;;5014121;28;20018;-71
2021/08/14 09:49:22;;;;;;;9.18;4.05;;;;;;;;;;5014204;28;20068;-71
2021/08/14 09:51:49;;;;;;;10.93;4.78;;;;;;;;;;4996382;28;20057;-70
2021/08/14 09:54:15;;;;;;;8.52;4.00;;;;;;;;;;5013669;28;20546;-72
2021/08/14 09:56:40;;;;;;;6.70;4.13;;;;;;;;;;5014009;28;20021;-72
2021/08/14 09:59:07;;;;;;;9.75;3.85;;;;;;;;;;5013910;28;20068;-72
2021/08/14 10:01:36;;;;;;;5.95;3.42;;;;;;;;;;5013947;28;20022;-71
2021/08/14 10:04:03;;;;;;;8.20;3.85;;;;;;;;;;5013461;28;20091;-71
2021/08/14 10:06:29;;;;;;;8.02;4.30;;;;;;;;;;5013764;28;20029;-71
2021/08/14 10:08:56;;;;;;;6.45;4.00;;;;;;;;;;5013649;28;20014;-71
2021/08/14 10:11:21;;;;;;;9.10;3.80;;;;;;;;;;5013818;28;20025;-71
2021/08/14 10:13:48;;;;;;;13.82;4.13;;;;;;;;;;5013675;28;20021;-71
2021/08/14 10:16:15;;;;;;;8.00;4.50;;;;;;;;;;5013683;28;20109;-71
2021/08/14 10:18:41;;;;;;;11.32;4.32;;;;;;;;;;5013727;28;20045;-72
2021/08/14 10:21:07;;;;;;;6.57;4.05;;;;;;;;;;4995954;28;20057;-72
2021/08/14 10:23:32;;;;;;;5.70;3.70;;;;;;;;;;5013725;28;20042;-72
2021/08/14 10:26:00;;;;;;;11.82;3.80;;;;;;;;;;5013512;28;20368;-72
2021/08/14 10:28:45;;;;;;;9.00;3.60;;;;;;;;;;5013339;28;20067;-72
2021/08/14 10:31:29;;;;;;;15.07;3.80;;;;;;;;;;5013414;28;20018;-71
2021/08/14 10:33:56;;;;;;;4.70;3.38;;;;;;;;;;5012976;28;20137;-72
2021/08/14 10:36:29;;;;;;;7.47;4.00;;;;;;;;;;5013117;28;20467;-72
2021/08/14 10:38:57;;;;;;;5.82;3.13;;;;;;;;;;5013164;28;20394;-72
2021/08/14 10:41:37;;;;;;;4.95;3.25;;;;;;;;;;4996114;28;20360;-72
2021/08/14 10:44:03;;;;;;;7.70;3.13;;;;;;;;;;4995725;28;20021;-72
2021/08/14 10:46:36;;;;;;;6.97;3.30;;;;;;;;;;5013051;28;20030;-72
2021/08/14 10:49:03;;;;;;;6.22;3.08;;;;;;;;;;5013040;28;20048;-74
2021/08/14 10:51:51;;;;;;;9.93;3.35;;;;;;;;;;5013332;28;20417;-73
2021/08/14 10:54:36;;;;;;;4.53;3.30;;;;;;;;;;5013070;28;20024;-71
2021/08/14 10:57:03;;;;;;;4.90;3.45;;;;;;;;;;5013046;28;20026;-72
2021/08/14 10:59:43;;;;;;;4.90;3.15;;;;;;;;;;5013170;28;20424;-72
2021/08/14 11:02:21;;;;;;;4.15;3.00;;;;;;;;;;5012725;28;20025;-72
2021/08/14 11:04:54;;;;;;;5.95;3.75;;;;;;;;;;5012545;28;20093;-71
2021/08/14 11:07:34;;;;;;;5.05;3.35;;;;;;;;;;5012900;28;20498;-72
2021/08/14 11:10:13;;;;;;;7.55;4.18;;;;;;;;;;5012867;28;20032;-71
2021/08/14 11:12:40;;;;;;;6.32;3.40;;;;;;;;;;5012961;28;20010;-72
2021/08/14 11:15:20;;;;;;;7.45;3.33;;;;;;;;;;5012779;28;20109;-72
2021/08/14 11:17:47;;;;;;;4.57;3.33;;;;;;;;;;5012765;28;20026;-72
2021/08/14 11:20:26;;;;;;;5.90;3.50;;;;;;;;;;5012701;28;20010;-72
2021/08/14 11:22:57;;;;;;;4.63;3.22;;;;;;;;;;5012742;28;20026;-72
2021/08/14 11:25:36;;;;;;;4.15;3.42;;;;;;;;;;5012774;28;20018;-72
2021/08/14 11:28:06;;;;;;;5.13;2.92;;;;;;;;;;5012687;28;20020;-72
2021/08/14 11:30:34;;;;;;;6.63;3.53;;;;;;;;;;5012853;28;20071;-72
2021/08/14 11:33:00;;;;;;;9.18;3.55;;;;;;;;;;5012566;28;20021;-71
2021/08/14 11:35:26;;;;;;;8.35;3.30;;;;;;;;;;5012714;28;20053;-71
2021/08/14 11:37:55;;;;;;;6.00;3.30;;;;;;;;;;4995167;28;20022;-71
2021/08/14 11:40:21;;;;;;;7.90;3.67;;;;;;;;;;5012241;28;20467;-71
2021/08/14 11:42:58;;;;;;;5.55;3.60;;;;;;;;;;5012401;28;20025;-71
2021/08/14 11:45:25;;;;;;;7.40;3.35;;;;;;;;;;5012448;28;20022;-71
2021/08/14 11:47:58;;;;;;;5.30;3.17;;;;;;;;;;4998016;28;20469;-71
2021/08/14 11:50:32;;;;;;;6.68;3.33;;;;;;;;;;5016248;28;20024;-71
2021/08/14 11:52:57;;;;;;;7.60;3.63;;;;;;;;;;5016168;28;20026;-71
2021/08/14 11:55:23;;;;;;;6.68;3.58;;;;;;;;;;5016247;28;20125;-71
2021/08/14 11:57:51;;;;;;;7.00;3.63;;;;;;;;;;5016191;28;20014;-71
2021/08/14 12:00:24;;;;;;;5.67;3.20;;;;;;;;;;4998912;28;20092;-71
2021/08/14 12:03:03;;;;;;;8.00;3.35;;;;;;;;;;5016086;28;20451;-71
2021/08/14 12:05:28;;;;;;;5.97;3.78;;;;;;;;;;5015998;28;20572;-70
2021/08/14 12:07:53;;;;;;;8.63;3.60;;;;;;;;;;5015747;28;20026;-71
2021/08/14 12:10:21;;;;;;;7.90;3.30;;;;;;;;;;5015851;28;20298;-71
2021/08/14 12:12:47;;;;;;;;;;;;;;;;;;5016266;28;20026;-71
2021/08/14 12:15:12;;;;;;;4.70;3.67;;;;;;;;;;5015754;28;19914;-71
2021/08/14 12:17:44;;;;;;;6.15;3.50;;;;;;;;;;5015982;28;20026;-71
2021/08/14 12:20:10;;;;;;;8.45;3.45;;;;;;;;;;5015383;28;20022;-71
2021/08/14 12:22:37;;;;;;;6.55;3.13;;;;;;;;;;5015644;28;20088;-70
2021/08/14 12:25:19;;;;;;;11.20;3.58;;;;;;;;;;5015489;28;20071;-71
2021/08/14 12:27:45;;;;;;;6.82;3.08;;;;;;;;;;5015652;28;20018;-70
2021/08/14 12:30:14;;;;;;;4.75;3.15;;;;;;;;;;5015336;28;20442;-71
2021/08/14 12:32:39;;;;;;;8.90;3.30;;;;;;;;;;4993996;28;20407;-71
2021/08/14 12:35:19;;;;;;;7.20;3.60;;;;;;;;;;5014121;28;20029;-71
2021/08/14 12:37:44;;;;;;;8.88;3.45;;;;;;;;;;5015496;28;20467;-71
2021/08/14 12:40:10;;;;;;;5.30;3.03;;;;;;;;;;5015428;28;20026;-71
2021/08/14 12:42:36;;;;;;;5.53;2.92;;;;;;;;;;5015584;28;20022;-71
2021/08/14 12:45:13;;;;;;;10.57;3.42;;;;;;;;;;5015375;28;20029;-71
2021/08/14 12:47:38;;;;;;;6.85;3.00;;;;;;;;;;5015502;28;20387;-71
2021/08/14 12:50:22;;;;;;;10.00;3.37;;;;;;;;;;4997991;28;20017;-71
2021/08/14 12:53:12;;;;;;;8.15;3.15;;;;;;;;;;5015305;28;20256;-71
2021/08/14 12:55:39;;;;;;;5.72;3.20;;;;;;;;;;5015034;28;20068;-70
2021/08/14 12:58:06;;;;;;;11.43;3.40;;;;;;;;;;5014794;28;20018;-71
2021/08/14 13:00:31;;;;;;;8.20;3.95;;;;;;;;;;5015198;28;20026;-71
2021/08/14 13:02:57;;;;;;;6.47;3.45;;;;;;;;;;4997337;28;20097;-70
2021/08/14 13:05:23;;;;;;;8.83;3.30;;;;;;;;;;5015006;28;20550;-71
2021/08/14 13:07:50;;;;;;;7.80;3.30;;;;;;;;;;5014848;28;20660;-71
2021/08/14 13:10:16;;;;;;;7.67;3.43;;;;;;;;;;5014528;28;20021;-71
2021/08/14 13:12:54;;;;;;;4.65;3.15;;;;;;;;;;5014692;28;20018;-72
2021/08/14 13:15:20;;;;;;;4.03;3.00;;;;;;;;;;4993309;28;20026;-71
2021/08/14 13:17:45;;;;;;;6.15;3.60;;;;;;;;;;5013639;28;20493;-71
2021/08/14 13:20:11;;;;;;;8.00;3.45;;;;;;;;;;5014397;28;20479;-71
2021/08/14 13:22:37;;;;;;;5.78;3.28;;;;;;;;;;5014970;28;20033;-71
2021/08/14 13:25:03;;;;;;;6.75;3.90;;;;;;;;;;5014348;28;20025;-71
2021/08/14 13:27:28;;;;;;;8.57;3.15;;;;;;;;;;5014798;28;20104;-70
2021/08/14 13:29:54;;;;;;;6.55;3.30;;;;;;;;;;5014451;28;20101;-70
2021/08/14 13:32:19;;;;;;;8.63;3.20;;;;;;;;;;4996975;28;20033;-70
2021/08/14 13:34:46;;;;;;;5.75;3.38;;;;;;;;;;5014249;28;20771;-71
2021/08/14 13:37:13;;;;;;;7.63;3.65;;;;;;;;;;5014321;28;20511;-71
2021/08/14 13:39:38;;;;;;;10.35;3.00;;;;;;;;;;5014331;28;20022;-70
2021/08/14 13:42:05;;;;;;;5.97;3.30;;;;;;;;;;5014239;28;20125;-71
2021/08/14 13:44:31;;;;;;;7.00;3.05;;;;;;;;;;4996636;28;20287;-71
2021/08/14 13:46:56;;;;;;;6.95;3.70;;;;;;;;;;5013940;28;20057;-70
2021/08/14 13:49:21;;;;;;;5.17;3.40;;;;;;;;;;5014013;28;20072;-71
2021/08/14 13:51:47;;;;;;;8.20;3.67;;;;;;;;;;5013996;28;20248;-70
2021/08/14 13:54:12;;;;;;;9.60;3.75;;;;;;;;;;4996132;28;20305;-70
2021/08/14 13:56:37;;;;;;;15.00;3.83;;;;;;;;;;5014056;28;20057;-70
2021/08/14 13:59:03;;;;;;;5.03;3.38;;;;;;;;;;5013754;28;20026;-71
2021/08/14 14:01:28;;;;;;;7.20;3.58;;;;;;;;;;5013984;28;20390;-70
2021/08/14 14:03:54;;;;;;;5.75;3.53;;;;;;;;;;5013628;28;20018;-70
2021/08/14 14:06:19;;;;;;;9.30;3.87;;;;;;;;;;5013968;28;20462;-71
2021/08/14 14:08:44;;;;;;;5.18;3.63;;;;;;;;;;5013424;28;20751;-70
2021/08/14 14:11:10;;;;;;;9.50;3.43;;;;;;;;;;5013352;28;20052;-71
2021/08/14 14:13:36;;;;;;;9.07;3.80;;;;;;;;;;5013866;28;20248;-71
2021/08/14 14:16:01;;;;;;;6.60;3.77;;;;;;;;;;5013488;28;20030;-71
2021/08/14 14:18:26;;;;;;;9.73;3.47;;;;;;;;;;5013520;28;20382;-70
2021/08/14 14:20:52;;;;;;;7.75;3.00;;;;;;;;;;5013437;28;20021;-70
2021/08/14 14:23:17;;;;;;;6.63;3.63;;;;;;;;;;5013529;28;20049;-70
2021/08/14 14:25:43;;;;;;;7.75;3.65;;;;;;;;;;5013676;28;20259;-70
2021/08/14 14:28:09;;;;;;;6.18;3.60;;;;;;;;;;5013233;28;20021;-71
2021/08/14 14:30:34;;;;;;;11.20;3.17;;;;;;;;;;5013540;28;20022;-71
2021/08/14 14:33:00;;;;;;;5.00;2.70;;;;;;;;;;5013189;28;20018;-71
2021/08/14 14:35:26;;;;;;;5.35;2.90;;;;;;;;;;5013367;28;20482;-71
2021/08/14 14:37:52;;;;;;;10.13;3.42;;;;;;;;;;5013286;28;20105;-71